sensor_id;sensor_type;location;lat;lon;timestamp;P1;durP1;ratioP1;P2;durP2;ratioP2
12451;SDS011;6291;48.924;12.204;2023-05-07T09:27:43;4.00;;;3.60;;
12451;SDS011;6291;48.924;12.204;2023-05-07T09:32:47;3.70;;;3.40;;
12451;SDS011;6291;48.924;12.204;2023-05-07T09:37:55;3.30;;;3.00;;
12451;SDS011;6291;48.924;12.204;2023-05-07T09:43:10;2.80;;;2.60;;
12451;SDS011;6291;48.924;12.204;2023-05-07T09:48:20;3.50;;;3.20;;
12451;SDS011;6291;48.924;12.204;2023-05-07T09:53:27;3.53;;;3.00;;
12451;SDS011;6291;48.924;12.204;2023-05-07T09:58:37;3.40;;;3.10;;
12451;SDS011;6291;48.924;12.204;2023-05-07T10:03:44;3.28;;;2.88;;
12451;SDS011;6291;48.924;12.204;2023-05-07T10:08:49;3.77;;;2.80;;
12451;SDS011;6291;48.924;12.204;2023-05-07T10:13:54;2.92;;;2.67;;
12451;SDS011;6291;48.924;12.204;2023-05-07T10:18:58;2.80;;;2.50;;
12451;SDS011;6291;48.924;12.204;2023-05-07T10:24:03;3.67;;;2.40;;
12451;SDS011;6291;48.924;12.204;2023-05-07T10:29:14;2.65;;;2.20;;
12451;SDS011;6291;48.924;12.204;2023-05-07T10:34:23;2.70;;;2.45;;
12451;SDS011;6291;48.924;12.204;2023-05-07T10:39:30;3.63;;;2.85;;
12451;SDS011;6291;48.924;12.204;2023-05-07T10:44:35;2.50;;;2.30;;
12451;SDS011;6291;48.924;12.204;2023-05-07T10:55:20;3.58;;;2.45;;
12451;SDS011;6291;48.924;12.204;2023-05-07T11:00:57;3.17;;;2.65;;
12451;SDS011;6291;48.924;12.204;2023-05-07T11:06:11;2.63;;;2.35;;
12451;SDS011;6291;48.924;12.204;2023-05-07T11:11:44;2.60;;;2.10;;
12451;SDS011;6291;48.924;12.204;2023-05-07T11:17:06;1.90;;;1.77;;
12451;SDS011;6291;48.924;12.204;2023-05-07T11:22:25;2.05;;;1.95;;
12451;SDS011;6291;48.924;12.204;2023-05-07T11:27:53;3.58;;;3.13;;
12451;SDS011;6291;48.924;12.204;2023-05-07T11:33:00;3.20;;;2.50;;
12451;SDS011;6291;48.924;12.204;2023-05-07T11:38:05;3.33;;;2.90;;
12451;SDS011;6291;48.924;12.204;2023-05-07T11:43:10;3.80;;;2.88;;
12451;SDS011;6291;48.924;12.204;2023-05-07T11:48:15;4.45;;;2.90;;
12451;SDS011;6291;48.924;12.204;2023-05-07T11:53:19;2.90;;;2.60;;
12451;SDS011;6291;48.924;12.204;2023-05-07T11:58:23;4.30;;;2.70;;
12451;SDS011;6291;48.924;12.204;2023-05-07T12:03:29;3.13;;;2.80;;
12451;SDS011;6291;48.924;12.204;2023-05-07T12:08:37;4.10;;;2.57;;
12451;SDS011;6291;48.924;12.204;2023-05-07T12:13:41;5.13;;;4.63;;
12451;SDS011;6291;48.924;12.204;2023-05-07T12:18:46;3.83;;;3.53;;
12451;SDS011;6291;48.924;12.204;2023-05-07T12:23:49;3.72;;;3.42;;
12451;SDS011;6291;48.924;12.204;2023-05-07T12:28:53;4.40;;;3.42;;
12451;SDS011;6291;48.924;12.204;2023-05-07T12:33:58;3.90;;;3.60;;
12451;SDS011;6291;48.924;12.204;2023-05-07T12:39:01;3.70;;;3.40;;
12451;SDS011;6291;48.924;12.204;2023-05-07T12:44:07;3.10;;;2.72;;
12451;SDS011;6291;48.924;12.204;2023-05-07T12:49:12;3.73;;;3.23;;
12451;SDS011;6291;48.924;12.204;2023-05-07T12:54:27;3.42;;;3.20;;
12451;SDS011;6291;48.924;12.204;2023-05-07T12:59:31;3.20;;;2.90;;
12451;SDS011;6291;48.924;12.204;2023-05-07T13:04:36;3.08;;;2.50;;
12451;SDS011;6291;48.924;12.204;2023-05-07T13:09:40;3.15;;;2.88;;
12451;SDS011;6291;48.924;12.204;2023-05-07T13:14:43;3.88;;;3.10;;
12451;SDS011;6291;48.924;12.204;2023-05-07T13:19:48;3.08;;;2.88;;
12451;SDS011;6291;48.924;12.204;2023-05-07T13:24:51;2.35;;;2.10;;
12451;SDS011;6291;48.924;12.204;2023-05-07T13:29:54;2.40;;;2.20;;
12451;SDS011;6291;48.924;12.204;2023-05-07T13:34:59;2.25;;;2.05;;
12451;SDS011;6291;48.924;12.204;2023-05-07T13:40:03;2.00;;;1.90;;
12451;SDS011;6291;48.924;12.204;2023-05-07T13:45:08;2.10;;;1.90;;
12451;SDS011;6291;48.924;12.204;2023-05-07T13:50:13;2.70;;;2.10;;
12451;SDS011;6291;48.924;12.204;2023-05-07T13:55:17;2.58;;;1.80;;
12451;SDS011;6291;48.924;12.204;2023-05-07T14:00:23;2.57;;;1.90;;
12451;SDS011;6291;48.924;12.204;2023-05-07T14:05:27;3.58;;;2.20;;
12451;SDS011;6291;48.924;12.204;2023-05-07T14:10:31;2.43;;;2.00;;
12451;SDS011;6291;48.924;12.204;2023-05-07T14:15:36;2.78;;;2.00;;
12451;SDS011;6291;48.924;12.204;2023-05-07T14:20:40;2.63;;;2.38;;
12451;SDS011;6291;48.924;12.204;2023-05-07T14:25:44;2.40;;;2.20;;
12451;SDS011;6291;48.924;12.204;2023-05-07T14:30:49;2.47;;;2.10;;
12451;SDS011;6291;48.924;12.204;2023-05-07T14:35:53;2.17;;;1.97;;
12451;SDS011;6291;48.924;12.204;2023-05-07T14:40:57;3.10;;;2.80;;
12451;SDS011;6291;48.924;12.204;2023-05-07T14:46:00;2.80;;;2.50;;
12451;SDS011;6291;48.924;12.204;2023-05-07T14:51:05;3.20;;;2.90;;
12451;SDS011;6291;48.924;12.204;2023-05-07T14:56:08;3.10;;;2.80;;
12451;SDS011;6291;48.924;12.204;2023-05-07T15:01:11;3.08;;;2.78;;
12451;SDS011;6291;48.924;12.204;2023-05-07T15:06:17;3.60;;;2.90;;
12451;SDS011;6291;48.924;12.204;2023-05-07T15:11:20;2.73;;;2.53;;
12451;SDS011;6291;48.924;12.204;2023-05-07T15:16:23;4.15;;;3.10;;
12451;SDS011;6291;48.924;12.204;2023-05-07T15:21:28;3.70;;;3.40;;
12451;SDS011;6291;48.924;12.204;2023-05-07T15:26:34;4.18;;;3.55;;
12451;SDS011;6291;48.924;12.204;2023-05-07T15:31:37;3.67;;;3.38;;
12451;SDS011;6291;48.924;12.204;2023-05-07T15:36:42;4.20;;;3.40;;
12451;SDS011;6291;48.924;12.204;2023-05-07T15:41:46;3.83;;;3.20;;
12451;SDS011;6291;48.924;12.204;2023-05-07T15:46:49;3.80;;;3.40;;
12451;SDS011;6291;48.924;12.204;2023-05-07T15:51:54;3.33;;;3.05;;
12451;SDS011;6291;48.924;12.204;2023-05-07T15:56:58;3.40;;;3.10;;
12451;SDS011;6291;48.924;12.204;2023-05-07T16:02:02;3.13;;;2.83;;
12451;SDS011;6291;48.924;12.204;2023-05-07T16:07:07;4.90;;;4.20;;
12451;SDS011;6291;48.924;12.204;2023-05-07T16:12:13;4.53;;;4.13;;
12451;SDS011;6291;48.924;12.204;2023-05-07T16:17:16;4.60;;;4.20;;
12451;SDS011;6291;48.924;12.204;2023-05-07T16:22:21;4.22;;;3.88;;
12451;SDS011;6291;48.924;12.204;2023-05-07T16:27:26;4.87;;;4.40;;
12451;SDS011;6291;48.924;12.204;2023-05-07T16:32:29;4.60;;;4.10;;
12451;SDS011;6291;48.924;12.204;2023-05-07T16:37:34;4.75;;;4.10;;
12451;SDS011;6291;48.924;12.204;2023-05-07T16:42:37;4.95;;;4.55;;
12451;SDS011;6291;48.924;12.204;2023-05-07T16:47:40;4.90;;;4.40;;
12451;SDS011;6291;48.924;12.204;2023-05-07T16:52:45;4.80;;;4.40;;
12451;SDS011;6291;48.924;12.204;2023-05-07T16:57:48;5.57;;;4.65;;
12451;SDS011;6291;48.924;12.204;2023-05-07T17:02:51;5.50;;;5.00;;
12451;SDS011;6291;48.924;12.204;2023-05-07T17:07:56;5.32;;;4.80;;
12451;SDS011;6291;48.924;12.204;2023-05-07T17:13:00;8.57;;;4.97;;
12451;SDS011;6291;48.924;12.204;2023-05-07T17:18:03;5.75;;;5.15;;
12451;SDS011;6291;48.924;12.204;2023-05-07T17:23:08;5.60;;;5.05;;
12451;SDS011;6291;48.924;12.204;2023-05-07T17:28:11;5.80;;;5.20;;
12451;SDS011;6291;48.924;12.204;2023-05-07T17:33:15;6.43;;;5.82;;
12451;SDS011;6291;48.924;12.204;2023-05-07T17:38:24;6.60;;;5.37;;
12451;SDS011;6291;48.924;12.204;2023-05-07T17:43:27;6.10;;;5.50;;
12451;SDS011;6291;48.924;12.204;2023-05-07T17:48:31;6.28;;;5.45;;
12451;SDS011;6291;48.924;12.204;2023-05-07T17:53:37;6.03;;;5.43;;
12451;SDS011;6291;48.924;12.204;2023-05-07T17:58:40;6.25;;;5.60;;
12451;SDS011;6291;48.924;12.204;2023-05-07T18:04:01;6.53;;;5.82;;
12451;SDS011;6291;48.924;12.204;2023-05-07T18:09:06;6.38;;;5.47;;
12451;SDS011;6291;48.924;12.204;2023-05-07T18:14:09;6.67;;;5.97;;
12451;SDS011;6291;48.924;12.204;2023-05-07T18:19:13;6.80;;;5.70;;
12451;SDS011;6291;48.924;12.204;2023-05-07T18:24:17;6.47;;;5.80;;
12451;SDS011;6291;48.924;12.204;2023-05-07T18:29:21;6.95;;;5.47;;
12451;SDS011;6291;48.924;12.204;2023-05-07T18:34:25;6.20;;;5.60;;
12451;SDS011;6291;48.924;12.204;2023-05-07T18:39:30;6.32;;;5.72;;
12451;SDS011;6291;48.924;12.204;2023-05-07T18:44:33;6.17;;;5.60;;
12451;SDS011;6291;48.924;12.204;2023-05-07T18:49:38;6.53;;;5.82;;
12451;SDS011;6291;48.924;12.204;2023-05-07T18:54:43;6.70;;;6.10;;
12451;SDS011;6291;48.924;12.204;2023-05-07T18:59:46;7.63;;;6.70;;
12451;SDS011;6291;48.924;12.204;2023-05-07T19:04:50;6.80;;;6.20;;
12451;SDS011;6291;48.924;12.204;2023-05-07T19:09:55;6.95;;;6.25;;
12451;SDS011;6291;48.924;12.204;2023-05-07T19:15:06;7.20;;;6.50;;
12451;SDS011;6291;48.924;12.204;2023-05-07T19:20:11;6.97;;;6.27;;
12451;SDS011;6291;48.924;12.204;2023-05-07T19:25:16;8.00;;;7.20;;
12451;SDS011;6291;48.924;12.204;2023-05-07T19:30:19;9.55;;;6.75;;
12451;SDS011;6291;48.924;12.204;2023-05-07T19:35:23;7.97;;;6.93;;
12451;SDS011;6291;48.924;12.204;2023-05-07T19:40:27;7.32;;;6.60;;
12451;SDS011;6291;48.924;12.204;2023-05-07T19:45:31;7.47;;;6.53;;
12451;SDS011;6291;48.924;12.204;2023-05-07T19:50:34;6.85;;;6.20;;
12451;SDS011;6291;48.924;12.204;2023-05-07T19:55:39;7.80;;;6.78;;
12451;SDS011;6291;48.924;12.204;2023-05-07T20:00:42;7.23;;;6.50;;
12451;SDS011;6291;48.924;12.204;2023-05-07T20:05:46;6.80;;;6.10;;
12451;SDS011;6291;48.924;12.204;2023-05-07T20:10:52;6.97;;;6.13;;
12451;SDS011;6291;48.924;12.204;2023-05-07T20:15:58;6.17;;;5.67;;
12451;SDS011;6291;48.924;12.204;2023-05-07T20:21:02;6.40;;;5.80;;
12451;SDS011;6291;48.924;12.204;2023-05-07T20:26:07;6.93;;;5.95;;
12451;SDS011;6291;48.924;12.204;2023-05-07T20:31:10;6.30;;;5.70;;
12451;SDS011;6291;48.924;12.204;2023-05-07T20:36:14;6.30;;;5.70;;
12451;SDS011;6291;48.924;12.204;2023-05-07T20:41:19;5.83;;;5.33;;
12451;SDS011;6291;48.924;12.204;2023-05-07T20:46:25;6.03;;;5.43;;
12451;SDS011;6291;48.924;12.204;2023-05-07T20:51:28;6.43;;;5.70;;
12451;SDS011;6291;48.924;12.204;2023-05-07T20:56:33;6.10;;;5.50;;
12451;SDS011;6291;48.924;12.204;2023-05-07T21:01:37;5.80;;;5.30;;
12451;SDS011;6291;48.924;12.204;2023-05-07T21:06:41;5.70;;;5.20;;
12451;SDS011;6291;48.924;12.204;2023-05-07T21:11:46;5.85;;;5.25;;
12451;SDS011;6291;48.924;12.204;2023-05-07T21:16:49;5.00;;;4.53;;
12451;SDS011;6291;48.924;12.204;2023-05-07T21:21:53;5.63;;;5.03;;
12451;SDS011;6291;48.924;12.204;2023-05-07T21:27:00;5.50;;;5.00;;
12451;SDS011;6291;48.924;12.204;2023-05-07T21:32:04;5.47;;;4.88;;
12451;SDS011;6291;48.924;12.204;2023-05-07T21:37:07;5.47;;;4.97;;
12451;SDS011;6291;48.924;12.204;2023-05-07T21:42:12;5.70;;;4.93;;
12451;SDS011;6291;48.924;12.204;2023-05-07T21:47:15;5.33;;;4.83;;
12451;SDS011;6291;48.924;12.204;2023-05-07T21:52:19;5.60;;;5.10;;
12451;SDS011;6291;48.924;12.204;2023-05-07T21:57:27;5.38;;;4.90;;
12451;SDS011;6291;48.924;12.204;2023-05-07T22:02:31;6.07;;;4.70;;
12451;SDS011;6291;48.924;12.204;2023-05-07T22:07:34;5.60;;;5.10;;
12451;SDS011;6291;48.924;12.204;2023-05-07T22:12:39;5.43;;;4.93;;
12451;SDS011;6291;48.924;12.204;2023-05-07T22:17:42;5.50;;;5.00;;
12451;SDS011;6291;48.924;12.204;2023-05-07T22:22:46;5.60;;;5.10;;
12451;SDS011;6291;48.924;12.204;2023-05-07T22:27:54;5.90;;;5.40;;
12451;SDS011;6291;48.924;12.204;2023-05-07T22:32:57;5.70;;;5.20;;
12451;SDS011;6291;48.924;12.204;2023-05-07T22:38:00;6.00;;;5.40;;
12451;SDS011;6291;48.924;12.204;2023-05-07T22:43:05;6.27;;;5.67;;
12451;SDS011;6291;48.924;12.204;2023-05-07T22:48:08;6.13;;;5.50;;
12451;SDS011;6291;48.924;12.204;2023-05-07T22:53:12;5.90;;;5.40;;
12451;SDS011;6291;48.924;12.204;2023-05-07T22:58:16;5.30;;;4.90;;
12451;SDS011;6291;48.924;12.204;2023-05-07T23:03:20;5.83;;;5.27;;
12451;SDS011;6291;48.924;12.204;2023-05-07T23:08:23;6.30;;;5.70;;
12451;SDS011;6291;48.924;12.204;2023-05-07T23:13:28;6.57;;;5.97;;
12451;SDS011;6291;48.924;12.204;2023-05-07T23:18:31;6.22;;;5.72;;
12451;SDS011;6291;48.924;12.204;2023-05-07T23:23:34;6.90;;;6.30;;
12451;SDS011;6291;48.924;12.204;2023-05-07T23:28:39;6.53;;;5.93;;
12451;SDS011;6291;48.924;12.204;2023-05-07T23:33:43;6.93;;;6.32;;
12451;SDS011;6291;48.924;12.204;2023-05-07T23:38:46;7.40;;;6.72;;
12451;SDS011;6291;48.924;12.204;2023-05-07T23:43:50;6.60;;;6.10;;
12451;SDS011;6291;48.924;12.204;2023-05-07T23:48:54;7.55;;;6.85;;
12451;SDS011;6291;48.924;12.204;2023-05-07T23:53:57;7.28;;;6.68;;
12451;SDS011;6291;48.924;12.204;2023-05-07T23:59:02;7.23;;;6.63;;
